Time;durP1;ratioP1;P1;durP2;ratioP2;P2;SDS_P1;SDS_P2;PMS_P1;PMS_P2;Temp;Humidity;BMP_temperature;BMP_pressure;BME280_temperature;BME280_humidity;BME280_pressure;Samples;Min_cycle;Max_cycle;Signal;HPM_P1;HPM_P2
2022/09/17 00:00:08;;;;;;;26.77;3.50;;;12.20;99.90;;;;;;5032025;28;20190;-48
2022/09/17 00:02:34;;;;;;;24.10;4.93;;;12.30;99.90;;;;;;5031878;28;20178;-48
2022/09/17 00:04:59;;;;;;;25.03;5.33;;;12.20;99.90;;;;;;5031996;28;20425;-49
2022/09/17 00:07:25;;;;;;;21.60;4.50;;;12.20;99.90;;;;;;5032187;28;20549;-49
2022/09/17 00:09:51;;;;;;;26.00;4.33;;;12.20;99.90;;;;;;5031465;28;20191;-49
2022/09/17 00:12:16;;;;;;;36.67;4.13;;;12.10;99.90;;;;;;5031886;28;20163;-49
2022/09/17 00:14:42;;;;;;;28.63;3.90;;;12.20;99.90;;;;;;5032061;28;20175;-48
2022/09/17 00:17:07;;;;;;;36.60;4.50;;;12.20;99.90;;;;;;5032160;28;20183;-48
2022/09/17 00:19:33;;;;;;;26.17;4.63;;;12.10;99.90;;;;;;5032422;28;20208;-48
2022/09/17 00:21:58;;;;;;;21.87;4.37;;;12.10;99.90;;;;;;5031301;28;20179;-48
2022/09/17 00:24:24;;;;;;;28.40;4.70;;;12.10;99.90;;;;;;5031341;28;20235;-48
2022/09/17 00:26:50;;;;;;;26.63;4.17;;;12.10;99.90;;;;;;5031619;28;20206;-49
2022/09/17 00:29:16;;;;;;;28.00;4.00;;;12.10;99.90;;;;;;5031526;28;20261;-48
2022/09/17 00:31:42;;;;;;;22.20;3.47;;;12.10;99.90;;;;;;5031714;28;20488;-49
2022/09/17 00:34:07;;;;;;;29.00;3.97;;;12.10;99.90;;;;;;5031243;28;20186;-48
2022/09/17 00:36:35;;;;;;;24.17;3.53;;;12.10;99.90;;;;;;5031411;28;20298;-48
2022/09/17 00:39:05;;;;;;;30.10;4.00;;;12.20;99.90;;;;;;5031494;28;20210;-48
2022/09/17 00:41:32;;;;;;;21.03;3.87;;;12.10;99.90;;;;;;5031612;28;20456;-48
2022/09/17 00:44:00;;;;;;;47.63;4.97;;;12.10;99.90;;;;;;5031400;28;20426;-48
2022/09/17 00:46:39;;;;;;;14.17;3.20;;;12.10;99.90;;;;;;5031510;28;21014;-48
2022/09/17 00:49:28;;;;;;;24.17;3.57;;;12.10;80.40;;;;;;5031084;28;20418;-47
2022/09/17 00:52:03;;;;;;;22.00;3.80;;;12.10;32.90;;;;;;5043131;28;20433;-49
2022/09/17 00:54:29;;;;;;;22.80;3.23;;;12.10;1.60;;;;;;5051189;28;20405;-49
2022/09/17 00:56:56;;;;;;;22.73;4.50;;;12.00;1.00;;;;;;5051279;28;20431;-49
2022/09/17 00:59:22;;;;;;;27.47;3.70;;;12.00;1.00;;;;;;5050850;28;20409;-48
2022/09/17 01:01:49;;;;;;;17.43;3.70;;;12.00;1.00;;;;;;5051167;28;20421;-49
2022/09/17 01:04:25;;;;;;;28.13;3.70;;;11.90;1.00;;;;;;5050734;28;20413;-49
2022/09/17 01:07:12;;;;;;;38.33;4.30;;;11.90;1.00;;;;;;5050363;28;20449;-48
2022/09/17 01:10:06;;;;;;;19.73;3.50;;;11.80;1.00;;;;;;5050045;28;21008;-48
2022/09/17 01:12:37;;;;;;;30.23;4.70;;;11.80;1.00;;;;;;5050649;28;20770;-48
2022/09/17 01:15:24;;;;;;;28.23;3.13;;;11.80;1.00;;;;;;5050644;28;20399;-48
2022/09/17 01:18:12;;;;;;;16.20;3.43;;;11.60;6.40;;;;;;5050822;28;20408;-49
2022/09/17 01:20:56;;;;;;;25.00;3.40;;;11.60;22.30;;;;;;5051071;28;20466;-48
2022/09/17 01:23:45;;;;;;;21.47;3.10;;;11.60;42.40;;;;;;5050235;28;20959;-48
2022/09/17 01:26:35;;;;;;;18.30;2.83;;;11.60;67.40;;;;;;5050128;28;20499;-48
2022/09/17 01:29:20;;;;;;;26.07;3.30;;;11.60;90.80;;;;;;5050762;28;20457;-49
2022/09/17 01:32:11;;;;;;;21.70;2.93;;;11.50;99.90;;;;;;5050358;28;20886;-48
2022/09/17 01:34:43;;;;;;;19.60;2.70;;;11.50;99.90;;;;;;5050385;28;20878;-48
2022/09/17 01:37:14;;;;;;;23.73;3.87;;;11.60;99.90;;;;;;5049973;28;20492;-48
2022/09/17 01:39:46;;;;;;;31.83;3.93;;;11.50;99.90;;;;;;5050167;28;20436;-48
2022/09/17 01:42:18;;;;;;;19.60;3.00;;;11.50;97.10;;;;;;5050180;28;20408;-48
2022/09/17 01:44:49;;;;;;;23.93;2.73;;;11.50;97.20;;;;;;5050463;28;20738;-49
2022/09/17 01:47:43;;;;;;;25.53;3.60;;;11.50;99.90;;;;;;5050409;28;20461;-47
2022/09/17 01:50:18;;;;;;;23.63;3.00;;;11.50;99.90;;;;;;5049984;28;20432;-47
2022/09/17 01:52:47;;;;;;;26.80;3.10;;;11.50;99.90;;;;;;5050297;28;20404;-48
2022/09/17 01:55:16;;;;;;;22.50;3.50;;;11.50;99.90;;;;;;5050324;28;20970;-48
2022/09/17 01:57:53;;;;;;;23.90;3.77;;;11.50;99.90;;;;;;5049984;28;20427;-48
2022/09/17 02:00:19;;;;;;;20.27;3.73;;;11.50;98.90;;;;;;5049989;28;20479;-47
2022/09/17 02:02:53;;;;;;;17.80;3.57;;;11.50;91.10;;;;;;5050318;28;20519;-48
2022/09/17 02:05:29;;;;;;;22.77;2.70;;;11.50;87.00;;;;;;5050253;28;20466;-48
2022/09/17 02:08:08;;;;;;;20.17;3.80;;;11.50;75.60;;;;;;5050029;28;20478;-48
2022/09/17 02:10:41;;;;;;;15.30;2.57;;;11.60;55.20;;;;;;5050249;28;20390;-48
2022/09/17 02:13:33;;;;;;;23.40;3.97;;;11.50;38.40;;;;;;5049586;28;20417;-49
2022/09/17 02:16:09;;;;;;;22.53;2.97;;;11.50;37.20;;;;;;5049895;28;20419;-48
2022/09/17 02:19:00;;;;;;;11.07;3.13;;;11.50;47.20;;;;;;5050266;28;20396;-49
2022/09/17 02:21:51;;;;;;;26.30;3.43;;;11.50;61.10;;;;;;5054117;28;20416;-48
2022/09/17 02:24:42;;;;;;;28.70;3.47;;;11.40;92.10;;;;;;5053641;28;21203;-48
2022/09/17 02:27:23;;;;;;;13.90;2.67;;;11.50;99.90;;;;;;5053832;28;20513;-48
2022/09/17 02:29:50;;;;;;;16.63;3.10;;;11.50;99.90;;;;;;5053992;28;20875;-48
2022/09/17 02:32:15;;;;;;;21.47;2.97;;;11.50;99.90;;;;;;5053718;28;20447;-48
2022/09/17 02:34:41;;;;;;;22.47;3.90;;;11.50;99.90;;;;;;5053897;28;20428;-49
2022/09/17 02:37:07;;;;;;;16.73;3.47;;;11.60;99.90;;;;;;5053499;28;20190;-48
2022/09/17 02:39:33;;;;;;;23.53;3.70;;;11.60;99.90;;;;;;5053641;28;20209;-48
2022/09/17 02:42:16;;;;;;;17.47;2.80;;;11.60;99.90;;;;;;5053751;28;20246;-48
2022/09/17 02:45:13;;;;;;;20.33;3.40;;;11.50;99.90;;;;;;5053256;28;20175;-48
2022/09/17 02:47:56;;;;;;;27.17;3.70;;;11.50;99.90;;;;;;5053389;28;20452;-49
2022/09/17 02:50:56;;;;;;;19.90;3.23;;;11.50;99.90;;;;;;5053733;28;20445;-48
2022/09/17 02:53:46;;;;;;;19.80;3.50;;;11.50;99.90;;;;;;5048032;28;20443;-55
2022/09/17 02:56:26;;;;;;;21.30;2.93;;;11.50;99.90;;;;;;5053646;28;20501;-48
2022/09/17 02:59:03;;;;;;;18.93;2.80;;;11.50;99.90;;;;;;5053125;28;20859;-49
2022/09/17 03:01:36;;;;;;;15.87;3.80;;;11.50;99.90;;;;;;5053053;28;20405;-49
2022/09/17 03:04:06;;;;;;;22.30;2.70;;;11.50;99.90;;;;;;5053024;28;20411;-49
2022/09/17 03:06:31;;;;;;;23.80;3.30;;;11.50;99.90;;;;;;5053178;28;20530;-48
2022/09/17 03:08:57;;;;;;;17.83;2.50;;;11.50;99.90;;;;;;5053118;28;20420;-49
2022/09/17 03:11:23;;;;;;;8.07;2.07;;;11.40;99.90;;;;;;5053280;28;20628;-48
2022/09/17 03:13:49;;;;;;;20.03;3.10;;;11.40;99.90;;;;;;5053333;28;20209;-49
2022/09/17 03:16:14;;;;;;;19.33;3.33;;;11.40;99.90;;;;;;5052639;28;20452;-50
2022/09/17 03:18:40;;;;;;;15.30;2.63;;;11.40;99.90;;;;;;5052766;28;20174;-48
2022/09/17 03:21:05;;;;;;;14.07;2.47;;;11.40;99.90;;;;;;5053068;28;20167;-48
2022/09/17 03:23:31;;;;;;;15.20;2.70;;;11.40;99.90;;;;;;5053152;28;20170;-48
2022/09/17 03:25:58;;;;;;;22.80;3.33;;;11.40;99.90;;;;;;5052452;28;20233;-49
2022/09/17 03:28:25;;;;;;;20.10;2.70;;;11.40;99.90;;;;;;5052433;28;20789;-49
2022/09/17 03:30:52;;;;;;;22.27;3.10;;;11.50;99.90;;;;;;5051633;28;20425;-48
2022/09/17 03:33:18;;;;;;;20.23;3.77;;;11.40;99.90;;;;;;5052516;28;20460;-48
2022/09/17 03:35:44;;;;;;;13.80;2.67;;;11.40;99.90;;;;;;5052487;28;20416;-48
2022/09/17 03:38:10;;;;;;;17.10;3.00;;;11.40;99.90;;;;;;5052743;28;20478;-48
2022/09/17 03:40:35;;;;;;;11.77;2.60;;;11.50;99.90;;;;;;5052646;28;20413;-49
2022/09/17 03:43:01;;;;;;;14.93;2.67;;;11.50;99.90;;;;;;5052507;28;20463;-49
2022/09/17 03:45:26;;;;;;;16.70;2.23;;;11.50;99.90;;;;;;5052506;28;20175;-48
2022/09/17 03:47:52;;;;;;;14.83;2.60;;;11.50;99.90;;;;;;5052475;28;20198;-48
2022/09/17 03:50:18;;;;;;;14.43;2.87;;;11.40;99.90;;;;;;5052499;28;20171;-48
2022/09/17 03:52:43;;;;;;;12.37;2.50;;;11.40;99.90;;;;;;5052362;28;20292;-49
2022/09/17 03:55:10;;;;;;;19.40;3.70;;;11.40;99.90;;;;;;5052119;28;20753;-49
2022/09/17 03:57:36;;;;;;;10.00;2.60;;;11.40;99.90;;;;;;5052035;28;20178;-48
2022/09/17 04:00:02;;;;;;;16.30;2.83;;;11.30;99.90;;;;;;5052372;28;20420;-48
2022/09/17 04:02:28;;;;;;;16.00;2.50;;;11.30;99.90;;;;;;5052069;28;20224;-48
2022/09/17 04:04:53;;;;;;;11.40;2.30;;;11.30;99.90;;;;;;5051885;28;20894;-48
2022/09/17 04:07:19;;;;;;;9.73;1.83;;;11.40;99.90;;;;;;5051641;28;20682;-48
2022/09/17 04:09:45;;;;;;;7.30;1.77;;;11.30;99.90;;;;;;5052350;28;20236;-48
2022/09/17 04:12:10;;;;;;;10.30;2.33;;;11.20;99.90;;;;;;5051628;28;20178;-48
2022/09/17 04:14:36;;;;;;;17.30;2.40;;;11.20;99.90;;;;;;5051633;28;20285;-48
2022/09/17 04:17:01;;;;;;;12.00;2.77;;;11.20;99.90;;;;;;5051548;28;20190;-49
2022/09/17 04:19:27;;;;;;;11.37;1.90;;;11.10;99.90;;;;;;5051562;28;20567;-50
2022/09/17 04:21:53;;;;;;;19.97;2.60;;;11.10;99.90;;;;;;5051490;28;20274;-48
2022/09/17 04:24:18;;;;;;;11.70;2.63;;;11.10;99.90;;;;;;5051342;28;20317;-48
2022/09/17 04:26:44;;;;;;;19.60;3.07;;;11.00;99.90;;;;;;5051398;28;20613;-48
2022/09/17 04:29:09;;;;;;;14.13;2.67;;;11.00;99.90;;;;;;5051355;28;20194;-47
2022/09/17 04:31:35;;;;;;;13.70;2.57;;;11.00;99.90;;;;;;5051598;28;20202;-48
2022/09/17 04:34:01;;;;;;;27.97;2.90;;;11.00;99.90;;;;;;5051386;28;20181;-48
2022/09/17 04:36:26;;;;;;;14.90;2.90;;;11.10;99.90;;;;;;5051461;28;20654;-49
2022/09/17 04:38:52;;;;;;;15.20;3.00;;;11.10;99.90;;;;;;5049929;28;20212;-48
2022/09/17 04:41:18;;;;;;;19.80;3.27;;;11.00;99.90;;;;;;5051422;28;20171;-48
2022/09/17 04:43:44;;;;;;;16.80;2.80;;;11.00;99.90;;;;;;5050104;28;20198;-49
2022/09/17 04:46:09;;;;;;;16.13;3.10;;;11.00;99.90;;;;;;5050873;28;20563;-48
2022/09/17 04:48:35;;;;;;;15.20;2.20;;;11.00;99.90;;;;;;5051429;28;20732;-48
2022/09/17 04:51:01;;;;;;;11.90;2.30;;;10.90;99.90;;;;;;5051233;28;20189;-47
2022/09/17 04:53:26;;;;;;;16.13;3.30;;;10.90;99.90;;;;;;5041747;28;20441;-48
2022/09/17 04:55:52;;;;;;;18.10;2.87;;;10.90;99.90;;;;;;5031219;28;20171;-48
2022/09/17 04:58:18;;;;;;;17.40;2.90;;;10.90;99.90;;;;;;5030634;28;20258;-48
2022/09/17 05:00:43;;;;;;;19.47;3.50;;;10.90;99.90;;;;;;5031052;28;20214;-46
2022/09/17 05:03:09;;;;;;;15.37;2.60;;;10.80;99.90;;;;;;5031226;28;20175;-46
2022/09/17 05:05:34;;;;;;;18.83;2.80;;;10.80;99.90;;;;;;5031012;28;20182;-46
2022/09/17 05:08:00;;;;;;;16.83;3.10;;;10.80;99.90;;;;;;5031265;28;20225;-46
2022/09/17 05:10:26;;;;;;;11.63;2.10;;;10.80;99.90;;;;;;5030987;28;20175;-46
2022/09/17 05:12:53;;;;;;;14.93;2.73;;;10.80;99.90;;;;;;5030490;28;20683;-47
2022/09/17 05:15:19;;;;;;;20.23;2.80;;;10.80;99.90;;;;;;5031041;28;20175;-47
2022/09/17 05:17:45;;;;;;;23.30;2.77;;;10.80;99.90;;;;;;5031061;28;20471;-46
2022/09/17 05:20:12;;;;;;;20.20;2.57;;;10.80;99.90;;;;;;5030793;28;20907;-46
2022/09/17 05:22:42;;;;;;;22.33;2.40;;;10.80;99.90;;;;;;5031108;28;20524;-46
2022/09/17 05:25:08;;;;;;;17.50;2.90;;;10.80;99.90;;;;;;5030211;28;20507;-47
2022/09/17 05:27:33;;;;;;;27.03;2.90;;;10.90;99.90;;;;;;5030644;28;20461;-46
2022/09/17 05:29:59;;;;;;;12.20;2.40;;;10.90;99.90;;;;;;5030938;28;20163;-46
2022/09/17 05:32:24;;;;;;;14.17;2.50;;;10.90;99.90;;;;;;5030668;28;20269;-46
2022/09/17 05:34:50;;;;;;;9.90;2.20;;;10.90;99.90;;;;;;5030847;28;20553;-46
2022/09/17 05:37:15;;;;;;;18.17;2.67;;;11.00;99.90;;;;;;5030158;28;20573;-46
2022/09/17 05:39:42;;;;;;;15.63;2.97;;;11.00;99.90;;;;;;5030347;28;20192;-46
2022/09/17 05:42:07;;;;;;;23.27;2.70;;;11.00;99.90;;;;;;5030521;28;20237;-48
2022/09/17 05:44:33;;;;;;;16.97;3.40;;;11.10;99.90;;;;;;5030272;28;20887;-46
2022/09/17 05:46:58;;;;;;;14.03;2.60;;;11.10;99.90;;;;;;5030637;28;20308;-46
2022/09/17 05:49:24;;;;;;;17.60;3.10;;;11.10;99.90;;;;;;5030004;28;20175;-46
2022/09/17 05:51:50;;;;;;;13.37;2.30;;;11.10;99.90;;;;;;5030427;28;20190;-46
2022/09/17 05:54:16;;;;;;;16.87;3.07;;;11.10;99.90;;;;;;5031341;28;20197;-46
2022/09/17 05:56:42;;;;;;;23.27;3.13;;;11.10;99.90;;;;;;5034509;28;20508;-46
2022/09/17 05:59:07;;;;;;;18.00;2.67;;;11.10;99.90;;;;;;5034374;28;20258;-46
2022/09/17 06:01:33;;;;;;;21.27;2.90;;;11.10;99.90;;;;;;5034575;28;20625;-47
2022/09/17 06:04:01;;;;;;;15.97;3.37;;;11.20;99.90;;;;;;5034520;28;20190;-46
2022/09/17 06:06:29;;;;;;;11.53;2.77;;;11.20;99.90;;;;;;5034382;28;20238;-46
2022/09/17 06:08:55;;;;;;;10.37;2.03;;;11.20;99.90;;;;;;5034309;28;20832;-45
2022/09/17 06:11:21;;;;;;;12.10;2.50;;;11.20;99.90;;;;;;5033145;28;20433;-46
2022/09/17 06:13:46;;;;;;;8.90;2.20;;;11.20;99.90;;;;;;5034601;28;21383;-46
2022/09/17 06:16:12;;;;;;;17.20;2.87;;;11.10;99.90;;;;;;5034244;28;20632;-46
2022/09/17 06:18:37;;;;;;;16.90;2.47;;;11.10;99.90;;;;;;5034297;28;20183;-46
2022/09/17 06:21:04;;;;;;;8.03;1.73;;;11.10;99.90;;;;;;5034145;28;20206;-46
2022/09/17 06:23:36;;;;;;;15.70;2.40;;;11.10;99.90;;;;;;5034075;28;20685;-46
2022/09/17 06:26:03;;;;;;;12.07;2.07;;;11.10;99.90;;;;;;5033704;28;21251;-46
2022/09/17 06:28:29;;;;;;;14.83;2.17;;;11.00;99.90;;;;;;5033788;28;20476;-46
2022/09/17 06:30:59;;;;;;;18.60;2.50;;;11.00;87.70;;;;;;5033826;28;20413;-46
2022/09/17 06:33:25;;;;;;;14.30;2.30;;;10.90;84.50;;;;;;5033810;28;20707;-46
2022/09/17 06:36:11;;;;;;;14.47;2.33;;;10.90;74.10;;;;;;5033862;28;20467;-47
2022/09/17 06:38:37;;;;;;;13.63;2.53;;;10.90;78.30;;;;;;5033664;28;20424;-46
2022/09/17 06:41:03;;;;;;;16.57;2.80;;;10.90;75.00;;;;;;5033705;28;20839;-46
2022/09/17 06:43:29;;;;;;;13.37;1.90;;;10.90;73.60;;;;;;5033365;28;20524;-46
2022/09/17 06:46:00;;;;;;;14.00;2.13;;;10.90;73.70;;;;;;5033874;28;20883;-46
2022/09/17 06:48:27;;;;;;;10.13;1.63;;;11.10;66.90;;;;;;5032207;28;20469;-46
2022/09/17 06:50:53;;;;;;;10.33;2.00;;;11.10;37.50;;;;;;5033692;28;20420;-46
2022/09/17 06:53:20;;;;;;;13.90;1.77;;;11.20;1.00;;;;;;5035769;28;20477;-45
2022/09/17 06:55:46;;;;;;;5.93;1.33;;;11.20;1.00;;;;;;5053885;28;20397;-46
2022/09/17 06:58:12;;;;;;;9.10;1.70;;;11.40;1.00;;;;;;5053171;28;20405;-46
2022/09/17 07:00:37;;;;;;;6.43;1.43;;;11.60;1.00;;;;;;5053497;28;20841;-47
2022/09/17 07:03:03;;;;;;;8.20;1.33;;;11.80;99.90;;;;;;5053315;28;20189;-46
2022/09/17 07:05:30;;;;;;;4.00;0.97;;;12.00;1.00;;;;;;5052721;28;20186;-45
2022/09/17 07:07:56;;;;;;;10.93;2.10;;;12.40;1.00;;;;;;5051623;28;20232;-46
2022/09/17 07:10:22;;;;;;;9.13;1.30;;;12.80;1.00;;;;;;5052802;28;20893;-45
2022/09/17 07:12:48;;;;;;;6.13;1.53;;;13.40;1.00;;;;;;5053043;28;20535;-45
2022/09/17 07:15:14;;;;;;;5.93;1.20;;;13.80;1.00;;;;;;5053261;28;20182;-45
2022/09/17 07:17:42;;;;;;;7.20;2.63;;;13.90;1.00;;;;;;5052917;28;20467;-45
2022/09/17 07:20:09;;;;;;;7.80;1.40;;;13.70;99.90;;;;;;5052782;28;20473;-45
2022/09/17 07:22:35;;;;;;;11.20;1.20;;;13.50;99.90;;;;;;5052570;28;20425;-46
2022/09/17 07:25:01;;;;;;;4.87;1.20;;;13.30;1.00;;;;;;5052481;28;20581;-46
2022/09/17 07:27:27;;;;;;;4.30;1.00;;;13.20;99.90;;;;;;5052301;28;20489;-53
2022/09/17 07:29:53;;;;;;;5.97;1.20;;;13.00;1.00;;;;;;5052826;28;20163;-46
2022/09/17 07:32:19;;;;;;;2.53;1.27;;;13.00;1.00;;;;;;5052854;28;20421;-45
2022/09/17 07:34:44;;;;;;;6.13;1.67;;;12.90;99.90;;;;;;5053123;28;20194;-46
2022/09/17 07:37:10;;;;;;;8.33;1.57;;;12.80;99.90;;;;;;5052390;28;20244;-46
2022/09/17 07:39:36;;;;;;;5.60;1.50;;;13.00;1.00;;;;;;5051824;28;20294;-45
2022/09/17 07:42:03;;;;;;;6.17;1.40;;;13.00;1.00;;;;;;5035897;28;20672;-45
2022/09/17 07:44:29;;;;;;;3.77;1.00;;;13.00;99.90;;;;;;5045221;28;20217;-46
2022/09/17 07:46:54;;;;;;;5.30;1.27;;;13.20;1.00;;;;;;5050893;28;20464;-46
2022/09/17 07:49:20;;;;;;;6.63;1.53;;;13.50;1.00;;;;;;5052210;28;20198;-45
2022/09/17 07:51:45;;;;;;;2.80;1.20;;;13.80;1.00;;;;;;5051174;28;20198;-46
2022/09/17 07:54:11;;;;;;;4.97;1.30;;;14.60;1.00;;;;;;5032182;28;20680;-46
2022/09/17 07:56:37;;;;;;;8.10;1.90;;;15.20;62.60;;;;;;5032224;28;20270;-46
2022/09/17 07:59:03;;;;;;;8.90;1.83;;;15.80;1.00;;;;;;5049471;28;20555;-46
2022/09/17 08:01:30;;;;;;;7.07;1.60;;;16.40;99.90;;;;;;5051859;28;20214;-46
2022/09/17 08:03:56;;;;;;;35.00;19.60;;;16.80;1.00;;;;;;5044844;28;20508;-45
2022/09/17 08:06:29;;;;;;;11.03;2.57;;;17.30;1.00;;;;;;5041027;28;20448;-45
2022/09/17 08:08:56;;;;;;;8.43;1.60;;;17.80;1.00;;;;;;5064405;28;20189;-46
2022/09/17 08:11:25;;;;;;;15.30;2.67;;;18.20;1.00;;;;;;5044771;28;21263;-46
2022/09/17 08:13:52;;;;;;;7.27;1.83;;;18.20;1.00;;;;;;5032402;28;20532;-46
2022/09/17 08:16:19;;;;;;;6.20;1.53;;;17.40;1.00;;;;;;5031921;28;20445;-45
2022/09/17 08:18:46;;;;;;;10.57;1.70;;;16.30;1.00;;;;;;5032115;28;20390;-46
2022/09/17 08:21:14;;;;;;;5.37;1.40;;;15.70;1.00;;;;;;5038301;28;20449;-46
2022/09/17 08:23:41;;;;;;;9.80;2.33;;;15.30;1.00;;;;;;5045638;28;20952;-46
2022/09/17 08:26:11;;;;;;;13.90;1.80;;;14.90;1.00;;;;;;5041762;28;20960;-46
2022/09/17 08:28:37;;;;;;;7.03;1.90;;;14.50;1.00;;;;;;5031602;28;20939;-46
2022/09/17 08:31:07;;;;;;;12.10;2.17;;;14.20;1.00;;;;;;5040148;28;20520;-45
2022/09/17 08:33:37;;;;;;;15.10;1.80;;;13.90;1.00;;;;;;5051668;28;20600;-45
2022/09/17 08:36:04;;;;;;;14.83;2.03;;;13.70;1.00;;;;;;5043450;28;20468;-45
2022/09/17 08:38:37;;;;;;;6.23;1.27;;;13.70;1.00;;;;;;5036823;28;20902;-46
2022/09/17 08:41:09;;;;;;;9.80;2.00;;;13.60;1.00;;;;;;5051526;28;20463;-46
2022/09/17 08:43:51;;;;;;;9.03;1.70;;;14.00;1.00;;;;;;5038334;28;20499;-45
2022/09/17 08:46:16;;;;;;;4.80;1.60;;;14.80;1.00;;;;;;5031157;28;20416;-46
2022/09/17 08:48:52;;;;;;;11.07;2.40;;;15.90;1.00;;;;;;5050284;28;20444;-46
2022/09/17 08:51:32;;;;;;;11.00;2.07;;;16.20;1.00;;;;;;5051159;28;20261;-46
2022/09/17 08:54:03;;;;;;;7.57;1.77;;;15.70;1.00;;;;;;5031552;28;20429;-45
2022/09/17 08:56:32;;;;;;;10.30;1.63;;;15.10;1.00;;;;;;5040424;28;20507;-46
2022/09/17 08:59:39;;;;;;;4.57;1.43;;;14.70;1.00;;;;;;5051630;28;20433;-46
2022/09/17 09:02:30;;;;;;;8.90;1.30;;;14.40;1.00;;;;;;5027924;28;20457;-46
2022/09/17 09:05:11;;;;;;;5.40;1.23;;;14.60;1.00;;;;;;5028993;28;20464;-46
2022/09/17 09:07:43;;;;;;;4.43;1.93;;;14.70;1.00;;;;;;5027413;28;20477;-45
2022/09/17 09:10:12;;;;;;;3.07;1.00;;;14.50;1.00;;;;;;5048239;28;20807;-47
2022/09/17 09:12:39;;;;;;;3.97;1.00;;;14.30;1.00;;;;;;5035561;28;20437;-46
2022/09/17 09:15:47;;;;;;;4.93;1.13;;;14.30;1.00;;;;;;5030445;28;20442;-45
2022/09/17 09:18:24;;;;;;;3.13;0.90;;;14.00;1.00;;;;;;4993941;28;20445;-45
2022/09/17 09:20:54;;;;;;;5.87;1.10;;;13.90;1.00;;;;;;5037980;28;20499;-46
2022/09/17 09:23:46;;;;;;;5.23;1.23;;;13.90;1.00;;;;;;5048858;28;20480;-46
2022/09/17 09:26:20;;;;;;;1.70;0.80;;;13.80;1.00;;;;;;5047809;28;20476;-46
2022/09/17 09:29:03;;;;;;;8.73;1.10;;;14.00;1.00;;;;;;5030035;28;20463;-46
2022/09/17 09:31:33;;;;;;;5.47;1.27;;;14.20;1.00;;;;;;5030483;28;20498;-46
2022/09/17 09:34:01;;;;;;;3.57;0.90;;;14.30;1.00;;;;;;5033080;28;20461;-45
2022/09/17 09:36:28;;;;;;;3.23;0.90;;;14.50;1.00;;;;;;5031118;28;20527;-45
2022/09/17 09:39:00;;;;;;;2.50;1.33;;;14.60;1.00;;;;;;5050725;28;20452;-46
2022/09/17 09:41:30;;;;;;;1.67;0.70;;;14.50;1.00;;;;;;5048221;28;20467;-46
2022/09/17 09:44:05;;;;;;;3.10;0.80;;;14.70;1.00;;;;;;5050455;28;20910;-46
2022/09/17 09:46:42;;;;;;;2.63;0.90;;;15.00;1.00;;;;;;5032457;28;20462;-46
2022/09/17 09:49:26;;;;;;;4.20;0.80;;;15.00;1.00;;;;;;5030816;28;20413;-45
2022/09/17 09:52:04;;;;;;;2.67;0.80;;;15.00;1.00;;;;;;5050263;28;20429;-46
2022/09/17 09:54:45;;;;;;;2.97;0.70;;;15.00;1.00;;;;;;5050274;28;20409;-45
2022/09/17 09:57:17;;;;;;;1.87;0.87;;;14.70;1.00;;;;;;5035315;28;20478;-45
2022/09/17 09:59:42;;;;;;;3.20;0.80;;;14.70;1.00;;;;;;5040404;28;20571;-46
2022/09/17 10:02:09;;;;;;;2.93;1.00;;;14.70;1.00;;;;;;5030799;28;20417;-46
2022/09/17 10:04:34;;;;;;;2.30;0.90;;;14.60;1.00;;;;;;5038699;28;20201;-46
2022/09/17 10:07:11;;;;;;;3.67;1.10;;;14.60;1.00;;;;;;5049896;28;20809;-47
2022/09/17 10:09:43;;;;;;;3.63;1.07;;;14.60;1.00;;;;;;5049108;28;20189;-46
2022/09/17 10:12:09;;;;;;;3.30;1.00;;;14.80;1.00;;;;;;5050235;28;20401;-51
2022/09/17 10:14:37;;;;;;;4.07;1.27;;;15.00;1.00;;;;;;5047055;28;20441;-46
2022/09/17 10:17:23;;;;;;;2.63;1.03;;;15.10;1.00;;;;;;5050324;28;20424;-46
2022/09/17 10:20:11;;;;;;;4.53;1.03;;;15.20;1.00;;;;;;5048240;28;20436;-46
2022/09/17 10:22:43;;;;;;;3.10;0.80;;;14.90;1.00;;;;;;5037868;28;20453;-46
2022/09/17 10:25:33;;;;;;;5.83;0.87;;;14.70;1.00;;;;;;5030007;28;20478;-45
2022/09/17 10:28:03;;;;;;;2.90;0.80;;;14.50;1.00;;;;;;5026933;28;20994;-46
2022/09/17 10:30:29;;;;;;;1.83;1.00;;;14.60;1.00;;;;;;5029645;28;20773;-45
2022/09/17 10:33:18;;;;;;;6.87;1.30;;;14.70;1.00;;;;;;5030007;28;21072;-46
2022/09/17 10:35:57;;;;;;;5.33;1.30;;;14.80;1.00;;;;;;5030355;28;20402;-45
2022/09/17 10:38:37;;;;;;;3.10;1.03;;;14.70;1.00;;;;;;5030397;28;20426;-45
2022/09/17 10:41:21;;;;;;;7.13;1.10;;;14.60;1.00;;;;;;5032230;28;20420;-50
2022/09/17 10:43:48;;;;;;;3.77;1.10;;;14.60;1.00;;;;;;5033460;28;20868;-46
2022/09/17 10:46:28;;;;;;;4.93;1.10;;;14.60;1.00;;;;;;5033493;28;20426;-46
2022/09/17 10:49:24;;;;;;;3.50;1.10;;;14.30;1.00;;;;;;5034020;28;20437;-46
2022/09/17 10:51:49;;;;;;;4.30;1.00;;;14.20;1.00;;;;;;5033352;28;20394;-47
2022/09/17 10:54:41;;;;;;;6.17;1.03;;;14.90;1.00;;;;;;5033656;28;20483;-46
2022/09/17 10:57:14;;;;;;;3.50;1.07;;;16.30;1.00;;;;;;5033181;28;20174;-45
2022/09/17 10:59:50;;;;;;;2.90;1.10;;;16.40;1.00;;;;;;5033606;28;20425;-46
2022/09/17 11:02:44;;;;;;;1.83;0.97;;;15.80;1.00;;;;;;5032080;28;20413;-46
2022/09/17 11:05:35;;;;;;;3.80;1.20;;;15.30;1.00;;;;;;5033429;28;20453;-46
2022/09/17 11:08:38;;;;;;;1.27;0.90;;;14.80;1.00;;;;;;5033328;28;20794;-46
2022/09/17 11:11:23;;;;;;;3.73;1.43;;;14.60;1.00;;;;;;5036033;28;20564;-47
2022/09/17 11:14:44;;;;;;;6.10;3.63;;;14.80;1.00;;;;;;5037643;28;20437;-47
2022/09/17 11:17:18;;;;;;;3.53;1.20;;;16.40;1.00;;;;;;5029459;28;20465;-53
2022/09/17 11:20:05;;;;;;;3.33;1.43;;;17.00;1.00;;;;;;5020515;28;21033;-46
2022/09/17 11:22:45;;;;;;;4.27;1.30;;;17.20;1.00;;;;;;5039612;28;20973;-46
2022/09/17 11:25:26;;;;;;;4.70;1.73;;;17.70;1.00;;;;;;5052051;28;20559;-46
2022/09/17 11:27:57;;;;;;;5.13;1.50;;;18.30;1.00;;;;;;5052268;28;20518;-46
2022/09/17 11:30:23;;;;;;;4.10;1.40;;;18.60;1.00;;;;;;5052567;28;20571;-45
2022/09/17 11:33:21;;;;;;;4.57;1.23;;;18.60;1.00;;;;;;5050285;28;20445;-46
2022/09/17 11:35:59;;;;;;;5.90;1.20;;;18.60;1.00;;;;;;5040378;28;20268;-46
2022/09/17 11:38:38;;;;;;;3.07;1.27;;;18.10;1.00;;;;;;5045816;28;20479;-46
2022/09/17 11:41:32;;;;;;;2.83;0.93;;;18.60;1.00;;;;;;5044777;28;20464;-46
2022/09/17 11:44:15;;;;;;;8.00;1.57;;;19.70;1.00;;;;;;5032137;28;20434;-46
2022/09/17 11:46:50;;;;;;;3.93;1.50;;;19.40;1.00;;;;;;5041883;28;20532;-46
2022/09/17 11:49:32;;;;;;;3.93;1.43;;;18.80;1.00;;;;;;5052669;28;21034;-46
2022/09/17 11:52:03;;;;;;;5.17;1.70;;;18.30;1.00;;;;;;5043582;28;20472;-46
2022/09/17 11:54:38;;;;;;;4.33;1.60;;;17.40;1.00;;;;;;5032844;28;20395;-46
2022/09/17 11:57:39;;;;;;;4.70;1.40;;;16.40;1.00;;;;;;5032817;28;20478;-46
2022/09/17 12:00:11;;;;;;;6.27;1.43;;;15.90;1.00;;;;;;5047479;28;20442;-46
2022/09/17 12:02:39;;;;;;;5.20;1.50;;;15.80;1.00;;;;;;5052294;28;20907;-46
2022/09/17 12:05:22;;;;;;;8.57;1.70;;;15.40;1.00;;;;;;5052430;28;20867;-46
2022/09/17 12:08:07;;;;;;;5.43;1.40;;;15.50;1.00;;;;;;5051834;28;21119;-45
2022/09/17 12:11:16;;;;;;;5.60;1.40;;;15.80;1.00;;;;;;5053404;28;20405;-46
2022/09/17 12:13:57;;;;;;;8.83;1.83;;;16.00;1.00;;;;;;5049608;28;20440;-46
2022/09/17 12:16:34;;;;;;;4.53;1.67;;;16.00;1.00;;;;;;5043894;28;20449;-53
2022/09/17 12:19:37;;;;;;;7.00;1.47;;;16.10;1.00;;;;;;5047977;28;20416;-46
2022/09/17 12:22:14;;;;;;;4.20;1.37;;;16.90;1.00;;;;;;5045210;28;20440;-46
2022/09/17 12:24:41;;;;;;;4.67;1.47;;;17.50;1.00;;;;;;5049339;28;20456;-46
2022/09/17 12:27:20;;;;;;;6.13;2.20;;;17.40;1.00;;;;;;5048027;28;20546;-46
2022/09/17 12:30:03;;;;;;;6.93;2.20;;;17.00;1.00;;;;;;5048213;28;20539;-46
2022/09/17 12:33:06;;;;;;;6.17;2.03;;;16.90;1.00;;;;;;5048998;28;20424;-54
2022/09/17 12:35:58;;;;;;;7.73;2.27;;;17.20;1.00;;;;;;5046965;28;20444;-47
2022/09/17 12:38:34;;;;;;;6.57;1.90;;;17.30;1.00;;;;;;5047244;28;20437;-49
2022/09/17 12:41:10;;;;;;;10.63;2.23;;;18.10;1.00;;;;;;5045285;28;20436;-49
2022/09/17 12:43:59;;;;;;;10.83;2.07;;;18.50;1.00;;;;;;5046696;28;20441;-49
2022/09/17 12:46:47;;;;;;;6.67;1.53;;;18.80;1.00;;;;;;5047325;28;20456;-49
2022/09/17 12:50:01;;;;;;;13.30;1.80;;;19.00;1.00;;;;;;5047676;28;20527;-48
2022/09/17 12:52:35;;;;;;;6.10;1.60;;;18.80;1.00;;;;;;5025687;28;21159;-48
2022/09/17 12:55:53;;;;;;;5.77;1.77;;;18.90;1.00;;;;;;5044667;28;20531;-49
2022/09/17 12:58:56;;;;;;;6.20;1.77;;;19.00;1.00;;;;;;5015627;28;20456;-49
2022/09/17 13:01:25;;;;;;;9.20;2.10;;;18.90;1.00;;;;;;5039317;28;20887;-48
2022/09/17 13:04:42;;;;;;;7.27;1.90;;;18.70;1.00;;;;;;5046934;28;20421;-49
2022/09/17 13:07:41;;;;;;;8.20;1.97;;;18.40;1.00;;;;;;5043073;28;20476;-48
2022/09/17 13:10:19;;;;;;;9.10;1.97;;;17.60;1.00;;;;;;5044055;28;20428;-48
2022/09/17 13:13:05;;;;;;;7.57;2.30;;;17.00;1.00;;;;;;5042595;28;20432;-48
2022/09/17 13:16:09;;;;;;;18.70;3.00;;;16.30;1.00;;;;;;5043072;28;20437;-48